Time;durP1;ratioP1;P1;durP2;ratioP2;P2;SDS_P1;SDS_P2;PMS_P1;PMS_P2;Temp;Humidity;BMP_temperature;BMP_pressure;BME280_temperature;BME280_humidity;BME280_pressure;Samples;Min_cycle;Max_cycle;Signal;HPM_P1;HPM_P2
2022/03/23 00:00:55;;;;;;;37.33;25.40;;;;;;;12.50;39.45;102873.28;5042150;28;20040;-65
2022/03/23 00:03:23;;;;;;;36.67;23.33;;;;;;;12.45;39.53;102871.75;5061361;28;20497;-65
2022/03/23 00:05:51;;;;;;;37.38;23.58;;;;;;;12.38;39.50;102866.66;5078103;28;20040;-63
2022/03/23 00:08:17;;;;;;;47.67;23.15;;;;;;;12.32;39.57;102871.44;5077957;28;20382;-64
2022/03/23 00:11:07;;;;;;;33.47;23.15;;;;;;;12.25;39.63;102869.97;5058478;28;20050;-65
2022/03/23 00:13:51;;;;;;;34.13;21.48;;;;;;;12.18;39.59;102879.28;5043307;28;20047;-64
2022/03/23 00:16:35;;;;;;;37.70;23.15;;;;;;;12.06;39.74;102872.63;5063106;28;20040;-64
2022/03/23 00:19:06;;;;;;;38.08;23.38;;;;;;;11.98;39.88;102874.78;5061683;28;20044;-64
2022/03/23 00:21:33;;;;;;;37.63;23.13;;;;;;;11.91;40.00;102878.72;5078184;28;20445;-64
2022/03/23 00:24:00;;;;;;;37.03;21.90;;;;;;;11.89;40.10;102877.88;5060872;28;20493;-64
2022/03/23 00:26:32;;;;;;;36.60;23.08;;;;;;;11.89;39.94;102878.78;5065107;28;20040;-64
2022/03/23 00:29:00;;;;;;;43.72;23.63;;;;;;;11.92;40.25;102877.75;5061290;28;20058;-63
2022/03/23 00:31:27;;;;;;;37.75;24.30;;;;;;;11.92;40.30;102873.25;5078088;28;20119;-64
2022/03/23 00:33:57;;;;;;;38.70;24.65;;;;;;;11.88;40.32;102882.38;5067919;28;20509;-64
2022/03/23 00:36:24;;;;;;;39.13;25.45;;;;;;;11.82;40.37;102871.00;5070876;28;20093;-63
2022/03/23 00:38:53;;;;;;;37.38;24.27;;;;;;;11.76;40.39;102880.19;5077518;28;20052;-63
2022/03/23 00:41:21;;;;;;;36.45;25.27;;;;;;;11.72;40.57;102878.56;5053214;28;20516;-64
2022/03/23 00:43:48;;;;;;;42.75;25.40;;;;;;;11.69;40.61;102876.00;5057696;28;20050;-64
2022/03/23 00:46:16;;;;;;;39.03;25.30;;;;;;;11.64;40.93;102878.91;5057579;28;20044;-64
2022/03/23 00:48:43;;;;;;;42.10;25.23;;;;;;;11.58;40.95;102878.28;5057286;28;20071;-64
2022/03/23 00:51:11;;;;;;;35.65;25.50;;;;;;;11.49;40.83;102876.88;5057717;28;20090;-63
2022/03/23 00:53:54;;;;;;;41.47;24.95;;;;;;;11.41;40.98;102874.50;5048919;28;20051;-64
2022/03/23 00:56:21;;;;;;;36.33;24.52;;;;;;;11.35;40.91;102872.09;5064925;28;20047;-63
2022/03/23 00:58:48;;;;;;;41.83;24.52;;;;;;;11.31;41.13;102870.47;5066825;28;20115;-63
2022/03/23 01:01:14;;;;;;;37.75;25.45;;;;;;;11.28;41.23;102875.97;5093138;28;20068;-64
2022/03/23 01:03:42;;;;;;;39.70;24.65;;;;;;;11.27;41.14;102874.22;5074143;28;20051;-64
2022/03/23 01:06:10;;;;;;;30.48;19.17;;;;;;;11.30;41.13;102881.28;5095051;28;20051;-64
2022/03/23 01:08:38;;;;;;;32.80;19.38;;;;;;;11.29;41.01;102887.59;5043737;28;20558;-63
2022/03/23 01:11:05;;;;;;;33.90;21.33;;;;;;;11.26;41.18;102883.22;5076830;28;20041;-64
2022/03/23 01:13:34;;;;;;;34.25;20.85;;;;;;;11.23;40.85;102871.72;5072386;28;20047;-64
2022/03/23 01:16:01;;;;;;;31.85;22.13;;;;;;;11.20;40.96;102872.72;5066680;28;20052;-63
2022/03/23 01:18:30;;;;;;;37.63;23.45;;;;;;;11.19;40.94;102875.47;5065753;28;20098;-64
2022/03/23 01:20:58;;;;;;;36.08;22.60;;;;;;;11.17;40.91;102877.34;5072318;28;20032;-63
2022/03/23 01:24:06;;;;;;;40.88;24.58;;;;;;;11.13;41.40;102871.19;5070749;28;20123;-64
2022/03/23 01:26:48;;;;;;;37.10;23.88;;;;;;;11.09;41.18;102865.06;5066274;28;20040;-64
2022/03/23 01:29:16;;;;;;;37.47;24.85;;;;;;;11.01;41.22;102866.31;5076025;28;20052;-65
2022/03/23 01:35:33;;;;;;;40.03;24.25;;;;;;;10.84;41.47;102861.63;5049662;28;20049;-63
2022/03/23 01:38:04;;;;;;;39.15;25.30;;;;;;;10.76;41.62;102864.63;5056819;28;20045;-63
2022/03/23 01:40:34;;;;;;;40.95;25.83;;;;;;;10.66;41.71;102863.22;5041494;28;20041;-63
2022/03/23 01:43:01;;;;;;;39.80;25.77;;;;;;;10.57;41.84;102862.72;5040006;28;20067;-63
2022/03/23 01:45:32;;;;;;;42.00;25.50;;;;;;;10.47;41.96;102865.75;5059411;28;20052;-63
2022/03/23 01:47:59;;;;;;;38.60;24.02;;;;;;;10.43;42.22;102864.13;5063787;28;20040;-64
2022/03/23 01:50:26;;;;;;;38.22;24.65;;;;;;;10.38;42.03;102858.03;5074886;28;20098;-64
2022/03/23 01:52:53;;;;;;;49.15;25.45;;;;;;;10.33;42.27;102846.59;5076703;28;20052;-65
2022/03/23 01:55:26;;;;;;;39.75;25.50;;;;;;;10.30;42.38;102853.88;5059730;28;20093;-64
2022/03/23 01:57:54;;;;;;;41.58;26.35;;;;;;;10.23;42.57;102850.56;5059692;28;20504;-64
2022/03/23 02:00:21;;;;;;;42.50;25.95;;;;;;;10.17;42.59;102851.63;5076443;28;20050;-63
2022/03/23 02:02:52;;;;;;;46.33;26.13;;;;;;;10.13;42.79;102852.66;5094136;28;20076;-63
2022/03/23 02:05:38;;;;;;;39.53;25.70;;;;;;;10.05;42.94;102846.72;5047761;28;20047;-63
2022/03/23 02:08:11;;;;;;;40.72;24.33;;;;;;;9.98;42.73;102845.19;5075429;28;20055;-64
2022/03/23 02:10:41;;;;;;;46.05;26.65;;;;;;;9.93;43.04;102843.59;5075964;28;20056;-64
2022/03/23 02:13:33;;;;;;;44.05;24.40;;;;;;;9.86;43.33;102837.59;5059726;28;20123;-63
2022/03/23 02:16:21;;;;;;;37.85;24.70;;;;;;;9.81;43.29;102845.81;5063497;28;20047;-64
2022/03/23 02:18:49;;;;;;;42.30;25.10;;;;;;;9.75;43.36;102837.97;5061137;28;20489;-64
2022/03/23 02:21:16;;;;;;;39.50;25.25;;;;;;;9.71;43.38;102840.81;5076480;28;20043;-64
2022/03/23 02:23:53;;;;;;;45.10;25.98;;;;;;;9.66;43.36;102840.06;5067796;28;20083;-64
2022/03/23 02:26:42;;;;;;;40.80;24.17;;;;;;;9.62;43.50;102842.00;5063757;28;20051;-63
2022/03/23 02:29:10;;;;;;;39.85;24.60;;;;;;;9.61;43.66;102840.25;5074122;28;20102;-63
2022/03/23 02:31:37;;;;;;;41.15;24.55;;;;;;;9.63;43.60;102842.88;5094143;28;20036;-64
2022/03/23 02:34:05;;;;;;;41.40;25.27;;;;;;;9.64;43.72;102836.56;5074960;28;20118;-63
2022/03/23 02:36:32;;;;;;;38.83;25.00;;;;;;;9.69;43.87;102840.88;5075341;28;20040;-63
2022/03/23 02:38:58;;;;;;;40.75;26.35;;;;;;;9.75;43.76;102837.09;5093426;28;20044;-63
2022/03/23 02:41:28;;;;;;;42.83;26.35;;;;;;;9.77;43.83;102840.59;5075928;28;20096;-64
2022/03/23 02:44:16;;;;;;;43.83;26.33;;;;;;;9.77;43.90;102845.97;5077750;28;20039;-63
2022/03/23 02:46:44;;;;;;;40.28;26.75;;;;;;;9.72;43.48;102834.53;5046402;28;20055;-63
2022/03/23 02:49:18;;;;;;;42.10;25.83;;;;;;;9.70;43.99;102833.72;5071034;28;20505;-63
2022/03/23 02:51:53;;;;;;;42.97;26.20;;;;;;;9.69;44.03;102837.31;5073725;28;20040;-63
2022/03/23 03:03:06;;;;;;;42.13;25.55;;;;;;;9.76;43.96;102844.22;5060147;28;20036;-64
2022/03/23 03:05:37;;;;;;;37.90;25.05;;;;;;;9.76;44.21;102841.53;5055539;28;20432;-63
2022/03/23 03:11:21;;;;;;;42.08;24.65;;;;;;;9.78;44.15;102845.91;5073873;28;20051;-62
2022/03/23 03:17:09;;;;;;;33.00;21.55;;;;;;;9.86;44.17;102846.50;5070118;28;20044;-64
2022/03/23 03:19:36;;;;;;;33.17;21.73;;;;;;;9.86;43.99;102853.69;5074283;28;20047;-63
2022/03/23 03:22:06;;;;;;;39.08;22.17;;;;;;;9.84;43.96;102850.19;5073617;28;20040;-64
2022/03/23 03:24:37;;;;;;;38.42;22.13;;;;;;;9.79;43.85;102849.47;5054203;28;20124;-63
2022/03/23 03:27:03;;;;;;;36.92;24.33;;;;;;;9.76;43.76;102850.47;5057711;28;20119;-64
2022/03/23 03:29:30;;;;;;;38.63;24.33;;;;;;;9.69;43.59;102845.38;5057159;28;20044;-64
2022/03/23 03:31:57;;;;;;;42.35;24.23;;;;;;;9.62;44.06;102852.72;5091503;28;20043;-64
2022/03/23 03:34:28;;;;;;;41.15;24.77;;;;;;;9.53;43.96;102850.38;5076553;28;20040;-64
2022/03/23 03:36:54;;;;;;;40.90;24.50;;;;;;;9.46;44.13;102851.50;5058940;28;20048;-64
2022/03/23 03:39:21;;;;;;;35.08;23.00;;;;;;;9.41;44.06;102856.16;5090509;28;20048;-63
2022/03/23 03:41:47;;;;;;;41.33;24.27;;;;;;;9.38;44.37;102857.13;5079017;28;20040;-64
2022/03/23 03:44:14;;;;;;;44.38;25.08;;;;;;;9.39;44.42;102858.88;5076980;28;20045;-63
2022/03/23 03:47:07;;;;;;;33.38;21.52;;;;;;;9.41;44.48;102856.16;5078740;28;20040;-63
2022/03/23 03:53:30;;;;;;;35.95;23.13;;;;;;;9.47;44.33;102870.22;5057123;28;20501;-64
2022/03/23 03:56:05;;;;;;;36.53;22.40;;;;;;;9.50;44.14;102863.88;5054739;28;20040;-63
2022/03/23 03:58:32;;;;;;;41.10;23.10;;;;;;;9.51;44.24;102871.88;5094180;28;20579;-64
2022/03/23 04:00:59;;;;;;;37.50;22.73;;;;;;;9.55;44.36;102861.91;5063348;28;20048;-64
2022/03/23 04:03:26;;;;;;;35.28;22.25;;;;;;;9.57;44.29;102865.41;5058377;28;20087;-64
2022/03/23 04:05:52;;;;;;;36.25;23.55;;;;;;;9.59;44.56;102865.38;5060985;28;20150;-63
2022/03/23 04:08:19;;;;;;;39.03;22.98;;;;;;;9.59;44.49;102866.25;5081526;28;20055;-64
2022/03/23 04:10:46;;;;;;;34.05;22.52;;;;;;;9.59;44.43;102870.72;5089182;28;20059;-64
2022/03/23 04:13:12;;;;;;;33.75;22.30;;;;;;;9.60;44.58;102869.81;5077773;28;20397;-64
2022/03/23 04:15:39;;;;;;;34.88;21.83;;;;;;;9.60;44.50;102872.47;5096349;28;20062;-64
2022/03/23 04:18:07;;;;;;;36.95;23.02;;;;;;;9.57;44.56;102876.16;5087752;28;20120;-64
2022/03/23 04:20:35;;;;;;;37.92;23.45;;;;;;;9.54;44.53;102876.25;5058023;28;20098;-64
2022/03/23 04:23:02;;;;;;;40.53;24.20;;;;;;;9.47;44.61;102869.34;5060326;28;20075;-64
2022/03/23 04:25:29;;;;;;;38.28;25.10;;;;;;;9.39;44.61;102872.28;5077519;28;20477;-63
2022/03/23 04:27:58;;;;;;;40.17;23.40;;;;;;;9.34;44.77;102870.69;5077763;28;20059;-64
2022/03/23 04:30:28;;;;;;;37.78;23.20;;;;;;;9.29;44.72;102873.53;5096350;28;20115;-64
2022/03/23 04:32:55;;;;;;;41.97;23.27;;;;;;;9.28;44.96;102873.59;5094168;28;20047;-63
2022/03/23 04:35:22;;;;;;;34.35;22.42;;;;;;;9.29;44.97;102878.91;5088793;28;20048;-63
2022/03/23 04:37:50;;;;;;;37.53;22.55;;;;;;;9.31;44.88;102877.03;5067926;28;20405;-64
2022/03/23 04:40:18;;;;;;;37.22;23.60;;;;;;;9.34;45.05;102874.25;5062622;28;20039;-64
2022/03/23 04:42:45;;;;;;;34.20;21.70;;;;;;;9.38;45.09;102877.72;5068937;28;20444;-64
2022/03/23 04:45:13;;;;;;;45.47;23.85;;;;;;;9.38;44.94;102883.94;5056455;28;20040;-64
2022/03/23 04:47:41;;;;;;;37.08;21.60;;;;;;;9.39;44.88;102882.16;5041049;28;20135;-64
2022/03/23 04:50:09;;;;;;;38.92;22.05;;;;;;;9.38;44.87;102883.94;5057659;28;20055;-64
2022/03/23 04:52:37;;;;;;;35.05;21.20;;;;;;;9.35;44.80;102884.06;5075622;28;20063;-64
2022/03/23 04:55:05;;;;;;;36.92;21.30;;;;;;;9.30;44.82;102879.78;5060199;28;20499;-64
2022/03/23 04:57:32;;;;;;;34.30;21.98;;;;;;;9.26;44.96;102881.69;5073908;28;20493;-64
2022/03/23 04:59:59;;;;;;;36.40;20.98;;;;;;;9.24;44.98;102888.91;5095398;28;20067;-64
2022/03/23 05:02:28;;;;;;;36.05;21.02;;;;;;;9.22;44.80;102885.38;5095629;28;20039;-63
2022/03/23 05:04:55;;;;;;;37.83;21.02;;;;;;;9.19;44.82;102890.84;5089551;28;20093;-63
2022/03/23 05:07:22;;;;;;;36.17;22.25;;;;;;;9.18;44.84;102887.28;5087668;28;20090;-64
2022/03/23 05:09:48;;;;;;;35.15;21.10;;;;;;;9.19;45.04;102898.91;5067856;28;20117;-63
2022/03/23 05:12:15;;;;;;;39.65;21.50;;;;;;;9.19;44.83;102894.41;5075175;28;20508;-64
2022/03/23 05:14:42;;;;;;;37.85;21.58;;;;;;;9.22;44.84;102888.06;5091411;28;20047;-64
2022/03/23 05:17:08;;;;;;;34.65;21.00;;;;;;;9.24;44.97;102886.22;5077363;28;20039;-64
2022/03/23 05:19:35;;;;;;;34.28;20.65;;;;;;;9.25;45.00;102893.34;5084967;28;20074;-64
2022/03/23 05:22:03;;;;;;;35.65;21.80;;;;;;;9.25;44.78;102898.69;5074781;28;20102;-64
2022/03/23 05:24:30;;;;;;;35.75;21.40;;;;;;;9.22;44.90;102893.44;5069070;28;20032;-64
2022/03/23 05:26:57;;;;;;;35.15;22.02;;;;;;;9.20;44.98;102898.84;5092318;28;20447;-64
2022/03/23 05:29:24;;;;;;;32.85;21.58;;;;;;;9.19;44.96;102897.09;5074769;28;20388;-64
2022/03/23 05:31:50;;;;;;;35.53;20.98;;;;;;;9.14;44.90;102895.47;5074787;28;20080;-64
2022/03/23 05:34:17;;;;;;;36.00;21.33;;;;;;;9.07;45.01;102901.97;5056881;28;20493;-64
2022/03/23 05:36:44;;;;;;;29.77;19.65;;;;;;;8.96;44.84;102896.06;5057028;28;20127;-63
2022/03/23 05:39:10;;;;;;;36.97;21.58;;;;;;;8.83;44.76;102892.88;5074444;28;20055;-64
2022/03/23 05:41:38;;;;;;;34.30;21.70;;;;;;;8.70;45.14;102900.41;5091283;28;20090;-64
2022/03/23 05:44:05;;;;;;;37.72;22.05;;;;;;;8.58;44.97;102909.69;5076545;28;20044;-64
2022/03/23 05:46:32;;;;;;;34.30;21.40;;;;;;;8.49;45.06;102904.63;5059986;28;20101;-64
2022/03/23 05:48:59;;;;;;;35.20;22.75;;;;;;;8.43;45.23;102903.91;5057081;28;20057;-64
2022/03/23 05:51:26;;;;;;;37.47;21.77;;;;;;;8.36;45.60;102903.22;5064355;28;20123;-64
2022/03/23 05:53:52;;;;;;;39.55;22.42;;;;;;;8.32;45.52;102903.31;5056579;28;20083;-63
2022/03/23 05:56:19;;;;;;;39.78;22.20;;;;;;;8.28;45.66;102911.44;5060972;28;20497;-64
2022/03/23 05:58:45;;;;;;;38.70;22.75;;;;;;;8.23;45.79;102905.34;5076008;28;20041;-63
2022/03/23 06:01:12;;;;;;;38.72;23.60;;;;;;;8.21;45.88;102908.97;5086926;28;20055;-63
2022/03/23 06:03:39;;;;;;;37.33;22.20;;;;;;;8.16;45.74;102909.06;5059213;28;20072;-64
2022/03/23 06:06:06;;;;;;;37.97;23.33;;;;;;;8.10;46.16;102919.97;5074028;28;20068;-63
2022/03/23 06:08:33;;;;;;;37.83;24.17;;;;;;;8.07;46.11;102911.13;5055679;28;20048;-63
2022/03/23 06:11:00;;;;;;;39.85;23.40;;;;;;;8.04;46.41;102914.78;5092502;28;20048;-63
2022/03/23 06:13:26;;;;;;;41.58;23.30;;;;;;;8.03;46.52;102918.38;5088392;28;20051;-64
2022/03/23 06:15:54;;;;;;;40.85;23.17;;;;;;;8.03;46.25;102914.81;5073922;28;20044;-63
2022/03/23 06:18:21;;;;;;;34.67;21.92;;;;;;;8.05;46.60;102923.69;5061316;28;20554;-63
2022/03/23 06:20:48;;;;;;;35.90;22.50;;;;;;;8.12;46.69;102922.59;5075911;28;20074;-63
2022/03/23 06:23:15;;;;;;;38.95;23.92;;;;;;;8.19;46.54;102925.09;5075931;28;20047;-63
2022/03/23 06:25:42;;;;;;;46.47;23.92;;;;;;;8.20;46.71;102925.97;5093987;28;20404;-64
2022/03/23 06:28:12;;;;;;;38.78;24.45;;;;;;;8.18;46.66;102942.06;5058064;28;20075;-63
2022/03/23 06:30:39;;;;;;;37.50;23.13;;;;;;;8.16;46.71;102941.19;5080306;28;20040;-63
2022/03/23 06:33:05;;;;;;;49.75;23.75;;;;;;;8.17;46.74;102942.06;5077883;28;20040;-64
2022/03/23 06:35:33;;;;;;;39.50;24.30;;;;;;;8.21;46.65;102949.13;5065371;28;20032;-63
2022/03/23 06:38:00;;;;;;;37.00;23.67;;;;;;;8.24;46.70;102947.25;5092843;28;20056;-61
2022/03/23 06:40:26;;;;;;;38.85;24.45;;;;;;;8.26;46.88;102937.38;5082785;28;20126;-62
2022/03/23 06:42:53;;;;;;;37.90;24.30;;;;;;;8.31;46.94;102947.06;5072912;28;20378;-62
2022/03/23 06:45:19;;;;;;;35.00;22.70;;;;;;;8.35;46.94;102948.78;5093093;28;20077;-62
2022/03/23 06:47:46;;;;;;;39.53;23.45;;;;;;;8.40;47.23;102946.84;5074791;28;20048;-63
2022/03/23 06:50:13;;;;;;;40.08;24.13;;;;;;;8.44;47.12;102951.19;5092996;28;20048;-62
2022/03/23 06:52:39;;;;;;;41.25;23.90;;;;;;;8.49;47.21;102951.94;5093141;28;20046;-62
2022/03/23 06:55:07;;;;;;;42.75;23.95;;;;;;;8.59;47.31;102956.09;5092735;28;20040;-64
2022/03/23 06:57:34;;;;;;;39.72;23.48;;;;;;;8.69;47.20;102954.91;5090513;28;20040;-63
2022/03/23 07:00:03;;;;;;;42.25;23.92;;;;;;;8.81;47.34;102949.19;5091859;28;20044;-65
2022/03/23 07:02:29;;;;;;;39.47;23.45;;;;;;;8.95;47.51;102955.97;5092280;28;20505;-64
2022/03/23 07:04:56;;;;;;;39.75;24.20;;;;;;;9.02;47.55;102958.41;5092801;28;20474;-64
2022/03/23 07:07:22;;;;;;;39.38;23.40;;;;;;;9.14;47.72;102957.13;5091710;28;20067;-64
2022/03/23 07:09:49;;;;;;;55.90;24.67;;;;;;;9.28;47.66;102954.91;5092598;28;20048;-64
2022/03/23 07:12:18;;;;;;;35.22;23.38;;;;;;;9.46;47.83;102959.66;5092663;28;20508;-65
2022/03/23 07:14:44;;;;;;;33.65;22.98;;;;;;;9.71;47.63;102965.13;5090902;28;20848;-64
2022/03/23 07:17:12;;;;;;;35.60;22.75;;;;;;;9.97;47.61;102961.53;5060694;28;20040;-65
2022/03/23 07:19:39;;;;;;;34.95;23.58;;;;;;;10.27;47.65;102962.28;5087871;28;20032;-64
2022/03/23 07:22:05;;;;;;;36.47;22.33;;;;;;;10.57;47.46;102963.00;5091447;28;20051;-65
2022/03/23 07:24:32;;;;;;;38.45;23.00;;;;;;;10.89;47.33;102977.03;5093397;28;20055;-65
2022/03/23 07:27:03;;;;;;;36.33;23.17;;;;;;;11.16;47.12;102965.22;5075749;28;20044;-65
2022/03/23 07:29:45;;;;;;;35.70;23.35;;;;;;;11.45;46.79;102975.69;5075663;28;20401;-65
2022/03/23 07:32:12;;;;;;;32.92;22.33;;;;;;;11.67;46.69;102972.09;5055863;28;20052;-66
2022/03/23 07:34:39;;;;;;;32.17;21.65;;;;;;;11.96;46.45;102971.81;5075462;28;20485;-66
2022/03/23 07:37:05;;;;;;;38.58;22.33;;;;;;;12.28;46.44;102974.91;5074159;28;20044;-64
2022/03/23 07:39:32;;;;;;;34.42;22.35;;;;;;;12.59;45.97;102975.28;5092445;28;20039;-66
2022/03/23 07:42:00;;;;;;;31.77;20.65;;;;;;;12.90;45.57;102973.88;5092702;28;20036;-65
2022/03/23 07:44:26;;;;;;;35.60;21.95;;;;;;;13.19;45.18;102970.69;5092704;28;20044;-65
2022/03/23 07:46:53;;;;;;;31.60;21.55;;;;;;;13.49;44.71;102971.06;5093055;28;20450;-65
2022/03/23 07:49:19;;;;;;;34.95;20.77;;;;;;;13.78;44.31;102976.81;5072769;28;20060;-65
2022/03/23 07:51:46;;;;;;;35.08;20.52;;;;;;;14.03;43.96;102973.72;5073741;28;20052;-64
2022/03/23 07:54:12;;;;;;;30.65;21.08;;;;;;;14.27;43.67;102980.59;5092454;28;20036;-65
2022/03/23 07:56:39;;;;;;;39.90;22.30;;;;;;;14.50;43.18;102982.09;5093082;28;20050;-65
2022/03/23 07:59:06;;;;;;;35.13;20.92;;;;;;;14.72;42.76;102968.28;5092726;28;20408;-64
2022/03/23 08:01:34;;;;;;;34.92;21.52;;;;;;;14.91;42.49;102975.34;5092740;28;20040;-65
2022/03/23 08:04:02;;;;;;;33.80;21.88;;;;;;;15.10;42.25;102980.59;5079449;28;20044;-65
2022/03/23 08:06:29;;;;;;;35.60;21.67;;;;;;;15.30;42.01;102975.88;5072695;28;20040;-65
2022/03/23 08:08:56;;;;;;;35.95;21.65;;;;;;;15.47;41.49;102973.06;5073963;28;20124;-64
2022/03/23 08:11:23;;;;;;;37.13;21.63;;;;;;;15.65;41.33;102982.91;5091913;28;20040;-65
2022/03/23 08:13:49;;;;;;;37.25;21.30;;;;;;;15.85;41.08;102985.28;5085682;28;20040;-65
2022/03/23 08:16:17;;;;;;;31.92;20.33;;;;;;;16.05;40.74;102983.22;5075449;28;20048;-65
2022/03/23 08:18:44;;;;;;;36.97;21.33;;;;;;;16.22;40.39;102991.22;5082502;28;20162;-65
2022/03/23 08:21:11;;;;;;;33.22;21.73;;;;;;;16.31;40.32;102984.34;5096298;28;20484;-65
2022/03/23 08:23:38;;;;;;;37.80;21.67;;;;;;;16.41;39.92;102991.00;5095774;28;20040;-65
2022/03/23 08:26:09;;;;;;;38.40;21.95;;;;;;;16.56;39.76;102989.16;5078273;28;20370;-64
2022/03/23 08:28:39;;;;;;;35.67;21.05;;;;;;;16.66;39.87;102988.53;5085262;28;20047;-67
2022/03/23 08:31:07;;;;;;;36.55;21.13;;;;;;;16.69;39.63;102996.47;5062228;28;20389;-63
2022/03/23 08:33:34;;;;;;;36.42;21.55;;;;;;;16.75;39.17;102992.50;5075566;28;20524;-65
2022/03/23 08:36:04;;;;;;;33.30;21.55;;;;;;;16.90;39.12;102985.22;5086259;28;20060;-64
2022/03/23 08:38:30;;;;;;;33.53;21.73;;;;;;;17.09;39.01;102986.69;5095890;28;20044;-64
2022/03/23 08:40:57;;;;;;;34.00;21.30;;;;;;;17.27;38.71;102978.31;5077941;28;20047;-64
2022/03/23 08:43:24;;;;;;;34.10;21.92;;;;;;;17.37;38.56;102976.72;5062275;28;20124;-64
2022/03/23 08:45:51;;;;;;;35.70;21.63;;;;;;;17.49;38.82;102975.91;5075793;28;20036;-64
2022/03/23 08:48:20;;;;;;;32.25;21.13;;;;;;;17.60;38.15;102981.50;5075320;28;20397;-64
2022/03/23 08:50:49;;;;;;;35.10;22.13;;;;;;;17.71;38.14;102978.97;5075423;28;20056;-64
2022/03/23 08:53:16;;;;;;;38.05;22.00;;;;;;;17.84;37.78;102975.47;5075269;28;20048;-65
2022/03/23 08:55:43;;;;;;;33.35;21.98;;;;;;;17.97;37.56;102977.22;5075554;28;20040;-64
2022/03/23 08:58:09;;;;;;;29.80;22.00;;;;;;;18.08;37.69;102982.78;5078897;28;20059;-65
2022/03/23 09:00:37;;;;;;;34.83;22.38;;;;;;;18.17;37.50;102980.41;5095538;28;20054;-64
2022/03/23 09:03:03;;;;;;;29.58;22.33;;;;;;;18.27;37.26;102981.53;5095339;28;20044;-64
2022/03/23 09:05:30;;;;;;;32.05;21.42;;;;;;;18.38;36.94;102974.34;5095756;28;20043;-64
2022/03/23 09:08:04;;;;;;;35.05;22.92;;;;;;;18.48;36.75;102987.31;5095535;28;20393;-66
2022/03/23 09:10:31;;;;;;;35.55;22.08;;;;;;;18.57;36.61;102987.53;5077400;28;20098;-66
2022/03/23 09:12:58;;;;;;;44.85;22.23;;;;;;;18.68;36.27;102978.66;5077147;28;20143;-65
2022/03/23 09:15:24;;;;;;;30.10;21.00;;;;;;;18.82;36.02;102983.09;5094849;28;20032;-64
2022/03/23 09:17:51;;;;;;;29.42;21.58;;;;;;;18.96;35.80;102983.84;5095497;28;20036;-64
2022/03/23 09:20:18;;;;;;;32.00;20.85;;;;;;;19.08;35.44;102986.66;5093924;28;20139;-64
2022/03/23 09:22:44;;;;;;;31.85;22.10;;;;;;;19.18;35.64;102988.59;5095117;28;20051;-65
2022/03/23 09:25:15;;;;;;;40.05;22.30;;;;;;;19.30;34.95;102994.97;5095339;28;20118;-65
2022/03/23 09:27:43;;;;;;;29.13;21.05;;;;;;;19.44;35.33;102981.22;5093123;28;20051;-65
2022/03/23 09:30:13;;;;;;;29.65;20.48;;;;;;;19.57;35.15;102984.81;5092547;28;20040;-65
2022/03/23 09:32:41;;;;;;;32.30;21.40;;;;;;;19.68;34.85;102982.13;5086609;28;20047;-66
2022/03/23 09:35:09;;;;;;;35.55;21.13;;;;;;;19.79;34.55;102983.19;5057934;28;20036;-65
2022/03/23 09:37:47;;;;;;;29.70;20.83;;;;;;;19.91;34.24;102976.78;5080815;28;20082;-64
2022/03/23 09:40:24;;;;;;;28.38;20.95;;;;;;;20.00;33.97;102976.06;5072010;28;20044;-64
2022/03/23 09:43:04;;;;;;;30.85;20.63;;;;;;;20.10;33.71;102977.13;5074310;28;20401;-61
2022/03/23 09:48:00;;;;;;;30.17;21.38;;;;;;;20.31;33.82;102978.19;5094182;28;20067;-65
2022/03/23 09:50:33;;;;;;;29.83;20.17;;;;;;;20.44;33.43;102982.69;5084050;28;20398;-65
2022/03/23 09:53:00;;;;;;;28.48;20.40;;;;;;;20.55;33.18;102974.53;5065833;28;20040;-65
2022/03/23 09:55:27;;;;;;;30.05;21.20;;;;;;;20.65;33.05;102972.78;5080055;28;20041;-65
2022/03/23 09:57:58;;;;;;;30.38;21.42;;;;;;;20.79;33.02;102975.28;5092354;28;20101;-65
2022/03/23 10:00:29;;;;;;;34.08;21.40;;;;;;;20.90;32.73;102972.59;5080573;28;20486;-65
2022/03/23 10:02:55;;;;;;;32.70;20.23;;;;;;;21.01;32.70;102970.84;5073825;28;20102;-65
2022/03/23 10:05:47;;;;;;;34.55;21.23;;;;;;;21.12;32.33;102974.44;5074866;28;20540;-65
2022/03/23 10:08:40;;;;;;;29.35;20.70;;;;;;;21.23;31.86;102959.91;5088719;28;20051;-65
2022/03/23 10:11:29;;;;;;;29.20;21.75;;;;;;;21.34;31.63;102978.16;5043184;28;20052;-65
2022/03/23 10:14:49;;;;;;;26.98;19.65;;;;;;;21.47;31.65;102971.53;5073206;28;20044;-65
2022/03/23 10:17:45;;;;;;;25.73;20.20;;;;;;;21.63;31.18;102976.59;5078648;28;20111;-66
2022/03/23 10:20:13;;;;;;;28.98;20.05;;;;;;;21.76;30.84;102968.22;5089845;28;20047;-66
2022/03/23 10:22:48;;;;;;;29.70;20.33;;;;;;;21.89;30.78;102969.78;5079095;28;20035;-65
2022/03/23 10:25:15;;;;;;;;;;;;;;;22.00;31.09;102957.91;5057007;28;20041;-65
2022/03/23 10:27:43;;;;;;;30.35;20.10;;;;;;;22.19;31.10;102969.03;5074673;28;19927;-65
2022/03/23 10:30:13;;;;;;;27.70;20.50;;;;;;;22.31;30.21;102964.38;5073562;28;20044;-66
2022/03/23 10:32:43;;;;;;;27.17;20.23;;;;;;;22.42;30.02;102963.44;5055770;28;20040;-66
2022/03/23 10:35:13;;;;;;;25.35;19.73;;;;;;;22.55;29.72;102960.47;5055754;28;20049;-65
2022/03/23 10:37:42;;;;;;;26.42;18.83;;;;;;;22.63;29.36;102961.53;5073398;28;20036;-66
2022/03/23 10:40:18;;;;;;;26.90;20.92;;;;;;;22.74;29.32;102961.44;5086225;28;20048;-66
2022/03/23 10:42:50;;;;;;;28.65;19.90;;;;;;;22.89;28.85;102959.22;5092165;28;20495;-65
2022/03/23 10:45:21;;;;;;;26.13;19.67;;;;;;;23.00;28.60;102952.78;5093445;28;20048;-65
2022/03/23 10:47:49;;;;;;;24.70;19.08;;;;;;;23.07;28.04;102956.72;5073647;28;20516;-65
2022/03/23 10:50:23;;;;;;;30.50;20.05;;;;;;;23.16;27.83;102955.03;5073325;28;20052;-65
2022/03/23 10:52:56;;;;;;;26.52;20.55;;;;;;;23.26;27.52;102943.06;5074894;28;20036;-66
2022/03/23 10:55:25;;;;;;;27.05;19.88;;;;;;;23.33;27.16;102938.75;5075125;28;20051;-66
2022/03/23 10:57:52;;;;;;;29.50;21.20;;;;;;;23.38;27.15;102939.19;5092902;28;20047;-66
2022/03/23 11:00:36;;;;;;;25.33;20.65;;;;;;;23.46;26.70;102947.56;5075656;28;20079;-65
2022/03/23 11:03:05;;;;;;;28.60;19.73;;;;;;;23.54;27.05;102943.25;5087926;28;20051;-66
2022/03/23 11:05:40;;;;;;;27.10;20.02;;;;;;;23.58;26.65;102942.84;5093202;28;20040;-66
2022/03/23 11:08:14;;;;;;;25.42;19.60;;;;;;;23.67;26.76;102947.47;5075004;28;20135;-65
2022/03/23 11:16:23;;;;;;;30.20;20.30;;;;;;;23.99;26.25;102949.09;5073515;28;20048;-65
2022/03/23 11:18:56;;;;;;;34.83;24.05;;;;;;;24.08;26.13;102949.06;5090230;28;20040;-66
2022/03/23 11:21:23;;;;;;;33.33;24.55;;;;;;;24.23;26.25;102946.72;5080097;28;20082;-66
2022/03/23 11:23:50;;;;;;;35.25;22.77;;;;;;;24.43;26.07;102938.47;5073171;28;20064;-66
2022/03/23 11:26:17;;;;;;;36.05;23.90;;;;;;;24.63;26.04;102940.16;5088093;28;20093;-66
2022/03/23 11:28:46;;;;;;;31.52;23.58;;;;;;;24.82;26.19;102934.59;5073681;28;20074;-65
2022/03/23 11:31:17;;;;;;;33.40;22.40;;;;;;;24.98;26.10;102931.22;5055142;28;20076;-66
2022/03/23 11:33:49;;;;;;;30.88;23.20;;;;;;;25.08;25.32;102934.78;5072978;28;20048;-66
2022/03/23 11:36:19;;;;;;;35.75;24.13;;;;;;;25.10;25.00;102931.88;5093241;28;20434;-65
2022/03/23 11:38:49;;;;;;;30.85;23.00;;;;;;;25.10;24.56;102927.22;5074738;28;20044;-66
2022/03/23 11:41:16;;;;;;;34.42;24.80;;;;;;;25.15;24.56;102924.88;5091713;28;20059;-66
2022/03/23 11:43:43;;;;;;;30.48;23.63;;;;;;;25.22;24.07;102926.00;5092814;28;20134;-66
2022/03/23 11:46:20;;;;;;;33.90;23.00;;;;;;;25.23;24.03;102919.47;5082761;28;20041;-66
2022/03/23 11:49:12;;;;;;;30.80;23.63;;;;;;;25.25;24.15;102914.69;5068737;28;20412;-65
2022/03/23 11:52:03;;;;;;;35.15;23.92;;;;;;;25.30;23.92;102922.50;5087852;28;20044;-65
2022/03/23 11:57:54;;;;;;;31.58;21.63;;;;;;;25.42;23.80;102917.66;5077742;28;20514;-66